createdAt,value
2022-08-25T00:00:25.585Z,17.41
2022-08-25T00:02:59.348Z,17.33
2022-08-25T00:05:34.611Z,17.33
2022-08-25T00:08:06.591Z,17.23
2022-08-25T00:10:42.513Z,17.30
2022-08-25T00:13:14.585Z,17.32
2022-08-25T00:15:48.767Z,17.27
2022-08-25T00:18:20.390Z,17.30
2022-08-25T00:20:51.490Z,17.26
2022-08-25T00:23:21.684Z,17.25
2022-08-25T00:25:51.034Z,17.26
2022-08-25T00:28:20.378Z,17.26
2022-08-25T00:30:50.131Z,17.24
2022-08-25T00:33:21.121Z,17.22
2022-08-25T00:35:50.636Z,17.02
2022-08-25T00:38:20.239Z,17.09
2022-08-25T00:41:05.898Z,17.03
2022-08-25T00:43:38.578Z,17.09
2022-08-25T00:46:07.732Z,17.09
2022-08-25T00:48:40.483Z,17.03
2022-08-25T00:51:14.815Z,16.86
2022-08-25T00:53:44.694Z,16.90
2022-08-25T00:56:15.571Z,16.90
2022-08-25T00:58:53.815Z,16.77
2022-08-25T01:01:23.051Z,16.92
2022-08-25T01:03:54.107Z,16.89
2022-08-25T01:06:24.707Z,16.84
2022-08-25T01:08:54.774Z,16.84
2022-08-25T01:11:24.123Z,16.63
2022-08-25T01:13:58.337Z,16.75
2022-08-25T01:16:27.532Z,16.77
2022-08-25T01:19:00.706Z,16.61
2022-08-25T01:21:42.627Z,16.57
2022-08-25T01:24:17.787Z,16.64
2022-08-25T01:26:46.997Z,16.33
2022-08-25T01:29:26.470Z,16.49
2022-08-25T01:31:59.772Z,16.43
2022-08-25T01:34:32.082Z,16.41
2022-08-25T01:37:03.763Z,16.36
2022-08-25T01:39:36.724Z,16.09
2022-08-25T01:42:24.619Z,16.40
2022-08-25T01:44:54.364Z,16.40
2022-08-25T01:47:24.072Z,16.27
2022-08-25T01:49:53.323Z,16.35
2022-08-25T01:52:29.846Z,16.28
2022-08-25T01:55:02.059Z,16.32
2022-08-25T01:57:32.589Z,16.19
2022-08-25T02:00:01.882Z,16.32
2022-08-25T02:02:42.773Z,16.31
2022-08-25T02:05:18.477Z,16.26
2022-08-25T02:07:53.795Z,16.28
2022-08-25T02:10:24.324Z,16.15
2022-08-25T02:12:54.691Z,16.23
2022-08-25T02:15:24.197Z,16.20
2022-08-25T02:17:53.359Z,16.21
2022-08-25T02:20:24.065Z,16.11
2022-08-25T02:22:56.856Z,16.22
2022-08-25T02:25:26.404Z,16.21
2022-08-25T02:27:55.664Z,16.15
2022-08-25T02:30:25.031Z,16.16
2022-08-25T02:32:54.764Z,16.11
2022-08-25T02:35:24.183Z,16.16
2022-08-25T02:37:55.324Z,16.13
2022-08-25T02:40:24.866Z,16.10
2022-08-25T02:42:55.655Z,16.14
2022-08-25T02:45:25.425Z,16.03
2022-08-25T02:47:54.737Z,16.09
2022-08-25T02:50:24.190Z,16.08
2022-08-25T02:52:55.126Z,16.07
2022-08-25T02:55:24.374Z,16.04
2022-08-25T02:57:53.514Z,15.90
2022-08-25T03:00:23.176Z,15.97
2022-08-25T03:02:52.492Z,15.92
2022-08-25T03:05:21.593Z,15.90
2022-08-25T03:07:50.931Z,15.92
2022-08-25T03:10:24.837Z,15.90
2022-08-25T03:12:54.179Z,15.92
2022-08-25T03:15:25.744Z,15.91
2022-08-25T03:17:56.186Z,15.87
2022-08-25T03:20:29.841Z,15.90
2022-08-25T03:22:59.308Z,15.80
2022-08-25T03:25:47.401Z,15.88
2022-08-25T03:28:17.504Z,15.83
2022-08-25T03:30:47.033Z,15.83
2022-08-25T03:33:22.746Z,15.82
2022-08-25T03:35:51.846Z,15.71
2022-08-25T03:38:21.157Z,15.75
2022-08-25T03:40:52.027Z,15.74
2022-08-25T03:43:22.537Z,15.77
2022-08-25T03:45:51.849Z,15.76
2022-08-25T03:48:21.207Z,15.76
2022-08-25T03:50:54.880Z,15.70
2022-08-25T03:53:24.160Z,15.77
2022-08-25T03:55:54.804Z,15.76
2022-08-25T03:58:23.927Z,15.72
2022-08-25T04:00:53.163Z,15.68
2022-08-25T04:03:22.728Z,15.72
2022-08-25T04:05:52.310Z,15.69
2022-08-25T04:08:22.632Z,15.72
2022-08-25T04:10:53.198Z,15.72
2022-08-25T04:13:22.888Z,15.68
2022-08-25T04:15:52.023Z,15.68
2022-08-25T04:18:21.273Z,15.64
2022-08-25T04:20:50.787Z,15.60
2022-08-25T04:23:19.934Z,15.52
2022-08-25T04:25:49.122Z,15.53
2022-08-25T04:28:19.661Z,15.57
2022-08-25T04:30:51.985Z,15.59
2022-08-25T04:33:21.495Z,15.63
2022-08-25T04:35:51.697Z,15.60
2022-08-25T04:38:20.907Z,15.59
2022-08-25T04:40:58.442Z,15.69
2022-08-25T04:43:29.115Z,15.72
2022-08-25T04:45:58.734Z,15.67
2022-08-25T04:48:28.156Z,15.75
2022-08-25T04:50:57.438Z,15.77
2022-08-25T04:53:26.539Z,15.75
2022-08-25T04:55:55.693Z,15.74
2022-08-25T04:58:24.809Z,15.75
2022-08-25T05:01:02.395Z,15.68
2022-08-25T05:03:32.362Z,15.50
2022-08-25T05:06:01.748Z,15.62
2022-08-25T05:08:31.423Z,15.57
2022-08-25T05:11:00.672Z,15.55
2022-08-25T05:13:33.453Z,15.53
2022-08-25T05:16:04.864Z,15.58
2022-08-25T05:18:39.001Z,15.58
2022-08-25T05:21:12.355Z,15.55
2022-08-25T05:23:41.950Z,15.46
2022-08-25T05:26:19.577Z,15.43
2022-08-25T05:28:52.034Z,15.50
2022-08-25T05:31:25.275Z,15.44
2022-08-25T05:33:55.426Z,15.41
2022-08-25T05:36:27.758Z,15.33
2022-08-25T05:38:57.078Z,15.42
2022-08-25T05:41:30.059Z,15.33
2022-08-25T05:43:59.743Z,15.42
2022-08-25T05:46:32.012Z,15.44
2022-08-25T05:49:02.047Z,15.44
2022-08-25T05:51:31.647Z,15.43
2022-08-25T05:54:00.743Z,15.49
2022-08-25T05:56:29.974Z,15.50
2022-08-25T05:58:59.318Z,15.41
2022-08-25T06:01:48.156Z,15.47
2022-08-25T06:04:18.303Z,15.42
2022-08-25T06:06:48.909Z,15.55
2022-08-25T06:09:18.064Z,15.55
2022-08-25T06:11:51.700Z,15.59
2022-08-25T06:14:24.438Z,15.57
2022-08-25T06:16:55.375Z,15.61
2022-08-25T06:19:24.932Z,15.59
2022-08-25T06:21:56.659Z,15.50
2022-08-25T06:24:27.876Z,15.71
2022-08-25T06:26:57.932Z,15.69
2022-08-25T06:29:28.001Z,15.72
2022-08-25T06:31:58.944Z,15.79
2022-08-25T06:34:28.215Z,15.90
2022-08-25T06:36:57.366Z,15.91
2022-08-25T06:39:29.030Z,15.91
2022-08-25T06:41:59.149Z,15.91
2022-08-25T06:44:33.315Z,16.01
2022-08-25T06:47:03.863Z,15.98
2022-08-25T06:49:36.249Z,16.11
2022-08-25T06:52:06.280Z,16.10
2022-08-25T06:54:35.572Z,16.39
2022-08-25T06:57:12.647Z,16.51
2022-08-25T06:59:42.838Z,16.60
2022-08-25T07:02:15.320Z,16.74
2022-08-25T07:04:56.949Z,16.78
2022-08-25T07:07:28.010Z,16.83
2022-08-25T07:10:15.402Z,16.86
2022-08-25T07:12:48.676Z,16.89
2022-08-25T07:15:20.348Z,16.87
2022-08-25T07:17:51.936Z,16.97
2022-08-25T07:20:21.406Z,16.89
2022-08-25T07:22:53.191Z,16.86
2022-08-25T07:25:22.696Z,16.74
2022-08-25T07:27:58.685Z,16.77
2022-08-25T07:30:28.782Z,16.88
2022-08-25T07:33:00.715Z,16.85
2022-08-25T07:38:22.475Z,17.13
2022-08-25T07:40:57.100Z,17.24
2022-08-25T07:43:26.603Z,17.34
2022-08-25T07:45:56.284Z,17.42
2022-08-25T07:48:27.006Z,17.38
2022-08-25T07:50:56.686Z,17.56
2022-08-25T07:53:26.283Z,17.54
2022-08-25T07:56:00.435Z,17.64
2022-08-25T07:58:32.288Z,17.66
2022-08-25T08:01:03.839Z,17.74
2022-08-25T08:03:50.721Z,17.73
2022-08-25T08:06:23.528Z,17.77
2022-08-25T08:08:57.941Z,17.80
2022-08-25T08:11:30.502Z,17.89
2022-08-25T08:14:00.418Z,18.21
2022-08-25T08:16:33.049Z,18.69
2022-08-25T08:19:05.154Z,19.04
2022-08-25T08:21:37.643Z,19.29
2022-08-25T08:24:24.927Z,19.38
2022-08-25T08:26:59.026Z,19.73
2022-08-25T08:29:28.638Z,20.27
2022-08-25T08:31:57.762Z,20.79
2022-08-25T08:34:29.580Z,21.33
2022-08-25T08:36:59.806Z,21.64
2022-08-25T08:39:30.891Z,21.70
2022-08-25T08:42:39.779Z,22.02
2022-08-25T08:45:26.768Z,22.05
2022-08-25T08:48:36.934Z,21.55
2022-08-25T08:51:22.994Z,21.16
2022-08-25T08:54:00.415Z,21.27
2022-08-25T08:56:35.927Z,21.46
2022-08-25T08:59:10.911Z,21.53
2022-08-25T09:01:52.576Z,21.70
2022-08-25T09:04:31.307Z,21.61
2022-08-25T09:07:12.004Z,21.85
2022-08-25T09:09:44.244Z,22.40
2022-08-25T09:12:27.800Z,22.90
2022-08-25T09:15:13.004Z,23.39
2022-08-25T09:18:07.070Z,23.66
2022-08-25T09:21:01.980Z,23.95
2022-08-25T09:23:46.461Z,24.32
2022-08-25T09:26:31.869Z,24.68
2022-08-25T09:29:16.212Z,24.90
2022-08-25T09:31:46.820Z,24.93
2022-08-25T09:34:22.214Z,25.00
2022-08-25T09:36:53.498Z,25.36
2022-08-25T09:39:24.243Z,25.58
2022-08-25T09:42:00.297Z,25.89
2022-08-25T09:44:36.406Z,25.99
2022-08-25T09:47:15.093Z,26.01
2022-08-25T09:49:49.264Z,26.09
2022-08-25T09:52:36.362Z,26.41
2022-08-25T09:55:34.403Z,26.76
2022-08-25T09:58:22.262Z,27.03
2022-08-25T10:01:14.440Z,27.13
2022-08-25T10:04:03.643Z,27.47
2022-08-25T10:06:45.352Z,27.68
2022-08-25T10:09:26.740Z,27.77
2022-08-25T10:12:01.189Z,27.95
2022-08-25T10:14:44.618Z,28.00
2022-08-25T10:17:24.814Z,28.10
2022-08-25T10:20:19.907Z,28.11
2022-08-25T10:22:50.663Z,28.27
2022-08-25T10:25:28.125Z,28.29
2022-08-25T10:28:14.651Z,28.45
2022-08-25T10:31:01.421Z,28.82
2022-08-25T10:33:40.808Z,28.77
2022-08-25T10:36:20.339Z,28.95
2022-08-25T10:38:58.324Z,29.01
2022-08-25T10:41:44.276Z,29.31
2022-08-25T10:44:43.707Z,29.34
2022-08-25T10:47:48.402Z,29.34
2022-08-25T10:50:33.208Z,29.41
2022-08-25T10:53:26.813Z,29.32
2022-08-25T10:56:08.671Z,28.21
2022-08-25T10:59:10.680Z,27.39
2022-08-25T11:02:00.274Z,27.39
2022-08-25T11:04:38.468Z,27.38
2022-08-25T11:07:18.327Z,27.58
2022-08-25T11:09:52.262Z,27.84
2022-08-25T11:12:31.383Z,27.80
2022-08-25T11:15:08.495Z,27.45
2022-08-25T11:17:50.262Z,27.01
2022-08-25T11:20:27.346Z,26.31
2022-08-25T11:23:12.970Z,25.82
2022-08-25T11:25:46.420Z,25.41
2022-08-25T11:28:27.399Z,25.41
2022-08-25T11:31:00.409Z,26.13
2022-08-25T11:33:33.170Z,26.71
2022-08-25T11:36:14.504Z,26.85
2022-08-25T11:38:58.782Z,26.58
2022-08-25T11:41:37.752Z,27.13
2022-08-25T11:44:53.445Z,27.49
2022-08-25T11:48:07.612Z,27.56
2022-08-25T11:50:57.913Z,27.17
2022-08-25T11:53:30.271Z,26.88
2022-08-25T11:56:04.587Z,26.37
2022-08-25T11:58:41.569Z,25.79
2022-08-25T12:01:34.415Z,25.55
2022-08-25T12:04:16.595Z,25.07
2022-08-25T12:07:25.617Z,24.87
2022-08-25T12:10:22.840Z,24.71
2022-08-25T12:13:22.659Z,24.53
2022-08-25T12:16:02.408Z,24.31
2022-08-25T12:18:46.496Z,24.09
2022-08-25T12:21:34.807Z,24.04
2022-08-25T12:24:26.353Z,23.92
2022-08-25T12:27:02.181Z,23.61
2022-08-25T12:29:44.539Z,23.37
2022-08-25T12:32:30.502Z,23.61
2022-08-25T12:35:33.973Z,23.53
2022-08-25T12:38:09.119Z,23.50
2022-08-25T12:40:59.908Z,23.45
2022-08-25T12:43:33.312Z,23.42
2022-08-25T12:46:37.666Z,23.41
2022-08-25T12:49:29.312Z,23.48
2022-08-25T12:52:03.331Z,23.36
2022-08-25T12:54:47.776Z,23.57
2022-08-25T12:57:44.473Z,23.69
2022-08-25T13:00:22.125Z,24.24
2022-08-25T13:03:22.924Z,25.23
2022-08-25T13:06:31.940Z,26.17
2022-08-25T13:09:48.290Z,26.81
2022-08-25T13:12:22.890Z,27.20
2022-08-25T13:14:59.105Z,27.84
2022-08-25T13:17:30.771Z,28.27
2022-08-25T13:20:19.909Z,28.72
2022-08-25T13:22:57.194Z,29.08
2022-08-25T13:25:33.317Z,29.11
2022-08-25T13:28:11.235Z,29.05
2022-08-25T13:30:42.429Z,29.08
2022-08-25T13:33:20.563Z,28.48
2022-08-25T13:36:13.149Z,28.74
2022-08-25T13:38:42.317Z,29.08
2022-08-25T13:41:28.954Z,29.20
2022-08-25T13:44:01.841Z,29.16
2022-08-25T13:46:35.521Z,28.46
2022-08-25T13:49:08.788Z,27.68
2022-08-25T13:51:39.733Z,27.58
2022-08-25T13:54:25.161Z,27.22
2022-08-25T13:56:54.728Z,27.21
2022-08-25T13:59:29.325Z,27.17
2022-08-25T14:02:00.720Z,27.04
2022-08-25T14:04:34.176Z,27.51
2022-08-25T14:07:34.077Z,28.00
2022-08-25T14:10:08.744Z,28.29
2022-08-25T14:12:44.682Z,28.58
2022-08-25T14:15:33.378Z,28.36
2022-08-25T14:18:09.073Z,27.71
2022-08-25T14:20:44.910Z,27.48
2022-08-25T14:23:20.214Z,27.43
2022-08-25T14:25:51.816Z,27.77
2022-08-25T14:28:23.981Z,27.67
2022-08-25T14:30:58.540Z,27.58
2022-08-25T14:33:34.250Z,27.26
2022-08-25T14:36:05.400Z,26.90
2022-08-25T14:38:38.986Z,26.47
2022-08-25T14:41:10.446Z,26.44
2022-08-25T14:43:39.665Z,26.23
2022-08-25T14:46:20.019Z,25.97
2022-08-25T14:48:55.587Z,25.75
2022-08-25T14:51:26.137Z,25.63
2022-08-25T14:54:00.603Z,25.46
2022-08-25T14:56:30.328Z,25.38
2022-08-25T14:59:01.384Z,25.41
2022-08-25T15:01:31.250Z,25.27
2022-08-25T15:04:05.987Z,25.35
2022-08-25T15:06:37.590Z,25.07
2022-08-25T15:09:13.802Z,25.12
2022-08-25T15:11:45.933Z,24.96
2022-08-25T15:14:17.401Z,24.74
2022-08-25T15:16:50.233Z,24.54
2022-08-25T15:19:24.692Z,24.26
2022-08-25T15:21:58.107Z,24.24
2022-08-25T15:24:29.908Z,24.10
2022-08-25T15:27:02.933Z,24.16
2022-08-25T15:29:36.122Z,24.09
2022-08-25T15:32:08.905Z,24.09
2022-08-25T15:34:39.977Z,24.14
2022-08-25T15:37:12.182Z,24.19
2022-08-25T15:39:43.377Z,24.14
2022-08-25T15:42:13.990Z,24.11
2022-08-25T15:44:52.940Z,24.17
2022-08-25T15:47:24.183Z,24.14
2022-08-25T15:50:06.178Z,24.15
2022-08-25T15:52:46.302Z,24.17
2022-08-25T15:55:18.177Z,24.11
2022-08-25T15:57:49.500Z,24.22
2022-08-25T16:00:21.641Z,24.27
2022-08-25T16:02:51.194Z,24.24
2022-08-25T16:05:25.642Z,24.22
2022-08-25T16:07:55.620Z,24.28
2022-08-25T16:10:25.155Z,24.32
2022-08-25T16:12:54.360Z,24.43
2022-08-25T16:15:28.840Z,24.35
2022-08-25T16:18:01.331Z,24.41
2022-08-25T16:20:37.235Z,24.32
2022-08-25T16:23:06.714Z,24.27
2022-08-25T16:25:41.785Z,24.18
2022-08-25T16:28:13.668Z,24.26
2022-08-25T16:30:52.593Z,24.23
2022-08-25T16:33:22.853Z,24.28
2022-08-25T16:35:53.393Z,24.28
2022-08-25T16:38:22.716Z,24.28
2022-08-25T16:40:51.900Z,24.28
2022-08-25T16:43:21.216Z,24.11
2022-08-25T16:45:59.777Z,24.14
2022-08-25T16:48:31.061Z,24.03
2022-08-25T16:51:01.645Z,24.13
2022-08-25T16:53:50.567Z,23.99
2022-08-25T16:56:24.707Z,23.91
2022-08-25T16:58:59.396Z,23.99
2022-08-25T17:01:31.658Z,23.98
2022-08-25T17:04:01.049Z,23.92
2022-08-25T17:06:38.072Z,23.82
2022-08-25T17:09:09.446Z,23.92
2022-08-25T17:11:46.755Z,23.90
2022-08-25T17:14:19.264Z,23.77
2022-08-25T17:16:50.548Z,23.79
2022-08-25T17:19:21.053Z,23.76
2022-08-25T17:21:55.294Z,23.86
2022-08-25T17:24:29.492Z,23.87
2022-08-25T17:27:02.056Z,23.90
2022-08-25T17:29:31.383Z,23.89
2022-08-25T17:32:00.543Z,23.79
2022-08-25T17:34:30.835Z,23.72
2022-08-25T17:37:02.421Z,23.65
2022-08-25T17:39:32.642Z,23.55
2022-08-25T17:42:01.786Z,23.55
2022-08-25T17:44:31.101Z,23.50
2022-08-25T17:47:00.657Z,23.55
2022-08-25T17:49:29.920Z,23.52
2022-08-25T17:52:01.084Z,23.50
2022-08-25T17:54:30.954Z,23.54
2022-08-25T17:57:01.720Z,23.58
2022-08-25T17:59:32.622Z,23.58
2022-08-25T18:02:03.520Z,23.60
2022-08-25T18:04:34.003Z,23.49
2022-08-25T18:07:04.664Z,23.42
2022-08-25T18:09:34.555Z,23.33
2022-08-25T18:12:04.982Z,23.30
2022-08-25T18:14:34.205Z,23.21
2022-08-25T18:17:04.179Z,23.16
2022-08-25T18:19:34.280Z,23.14
2022-08-25T18:22:06.273Z,23.03
2022-08-25T18:24:36.090Z,22.99
2022-08-25T18:27:05.816Z,23.01
2022-08-25T18:29:38.640Z,22.89
2022-08-25T18:32:12.447Z,23.03
2022-08-25T18:34:42.038Z,23.04
2022-08-25T18:37:30.169Z,22.99
2022-08-25T18:40:16.689Z,22.85
2022-08-25T18:42:45.951Z,22.85
2022-08-25T18:45:15.374Z,22.86
2022-08-25T18:47:44.607Z,22.80
2022-08-25T18:50:13.930Z,22.84
2022-08-25T18:52:45.814Z,22.84
2022-08-25T18:55:15.073Z,22.80
2022-08-25T18:57:44.402Z,22.64
2022-08-25T19:00:19.019Z,22.66
2022-08-25T19:02:51.430Z,22.59
2022-08-25T19:05:23.881Z,22.43
2022-08-25T19:07:54.705Z,22.34
2022-08-25T19:10:24.876Z,22.27
2022-08-25T19:12:54.501Z,22.22
2022-08-25T19:15:31.195Z,22.34
2022-08-25T19:18:00.876Z,22.28
2022-08-25T19:20:30.865Z,22.07
2022-08-25T19:23:02.338Z,22.16
2022-08-25T19:25:33.168Z,22.15
2022-08-25T19:28:05.875Z,22.17
2022-08-25T19:30:36.039Z,22.14
2022-08-25T19:33:11.625Z,21.94
2022-08-25T19:35:46.264Z,22.12
2022-08-25T19:38:34.151Z,21.99
2022-08-25T19:41:14.227Z,21.96
2022-08-25T19:43:55.600Z,21.99
2022-08-25T19:46:33.262Z,21.88
2022-08-25T19:49:08.337Z,21.81
2022-08-25T19:51:44.352Z,21.77
2022-08-25T19:54:20.545Z,21.75
2022-08-25T19:56:55.037Z,21.77
2022-08-25T19:59:34.125Z,21.76
2022-08-25T20:02:07.559Z,21.78
2022-08-25T20:04:40.070Z,21.76
2022-08-25T20:07:12.505Z,21.76
2022-08-25T20:09:45.135Z,21.68
2022-08-25T20:14:49.099Z,21.56
2022-08-25T20:17:24.598Z,21.54
2022-08-25T20:19:57.191Z,21.56
2022-08-25T20:22:27.737Z,21.51
2022-08-25T20:25:01.650Z,21.45
2022-08-25T20:27:36.052Z,21.40
2022-08-25T20:30:13.330Z,21.34
2022-08-25T20:32:42.918Z,21.31
2022-08-25T20:35:15.448Z,21.20
2022-08-25T20:37:47.641Z,21.12
2022-08-25T20:40:25.292Z,21.20
2022-08-25T20:42:55.844Z,21.13
2022-08-25T20:45:25.544Z,21.18
2022-08-25T20:47:54.734Z,21.07
2022-08-25T20:50:24.638Z,21.09
2022-08-25T20:52:56.852Z,20.98
2022-08-25T20:55:29.369Z,21.07
2022-08-25T20:57:59.029Z,21.08
2022-08-25T21:00:28.274Z,21.01
2022-08-25T21:02:57.467Z,20.93
2022-08-25T21:05:26.693Z,20.93
2022-08-25T21:07:55.864Z,21.05
2022-08-25T21:10:25.395Z,21.02
2022-08-25T21:12:56.119Z,20.97
2022-08-25T21:15:25.468Z,20.91
2022-08-25T21:17:56.174Z,20.75
2022-08-25T21:20:27.100Z,20.82
2022-08-25T21:22:56.775Z,20.87
2022-08-25T21:25:26.361Z,20.86
2022-08-25T21:27:56.937Z,20.72
2022-08-25T21:30:26.872Z,20.73
2022-08-25T21:32:57.759Z,20.83
2022-08-25T21:35:27.776Z,20.76
2022-08-25T21:37:58.809Z,20.80
2022-08-25T21:40:28.053Z,20.65
2022-08-25T21:42:58.672Z,20.64
2022-08-25T21:45:27.996Z,20.74
2022-08-25T21:48:06.504Z,20.77
2022-08-25T21:50:35.814Z,20.76
2022-08-25T21:53:05.147Z,20.71
2022-08-25T21:55:39.245Z,20.71
2022-08-25T21:58:13.122Z,20.56
2022-08-25T22:00:43.850Z,20.66
2022-08-25T22:03:13.143Z,20.63
2022-08-25T22:05:42.283Z,20.48
2022-08-25T22:08:14.659Z,20.48
2022-08-25T22:10:45.789Z,20.42
2022-08-25T22:13:16.425Z,20.47
2022-08-25T22:15:47.412Z,20.55
2022-08-25T22:18:22.306Z,20.47
2022-08-25T22:20:52.643Z,20.50
2022-08-25T22:23:22.455Z,20.55
2022-08-25T22:25:58.355Z,20.57
2022-08-25T22:28:29.314Z,20.40
2022-08-25T22:31:02.527Z,20.48
2022-08-25T22:33:31.788Z,20.50
2022-08-25T22:36:00.868Z,20.50
2022-08-25T22:38:30.403Z,20.47
2022-08-25T22:41:03.749Z,20.47
2022-08-25T22:43:34.504Z,20.59
2022-08-25T22:46:05.381Z,20.55
2022-08-25T22:48:35.859Z,20.65
2022-08-25T22:51:09.423Z,20.61
2022-08-25T22:53:40.694Z,20.67
2022-08-25T22:56:11.530Z,20.65
2022-08-25T22:58:42.706Z,20.70
2022-08-25T23:01:21.784Z,20.70
2022-08-25T23:03:50.939Z,20.71
2022-08-25T23:06:24.811Z,20.68
2022-08-25T23:08:56.396Z,20.65
2022-08-25T23:11:27.129Z,20.71
2022-08-25T23:14:02.284Z,20.73
2022-08-25T23:16:32.257Z,20.71
2022-08-25T23:19:02.534Z,20.64
2022-08-25T23:21:49.119Z,20.64
2022-08-25T23:24:29.994Z,20.63
2022-08-25T23:27:01.333Z,20.55
2022-08-25T23:29:34.222Z,20.53
2022-08-25T23:32:04.129Z,20.48
2022-08-25T23:34:33.848Z,20.50
2022-08-25T23:37:03.481Z,20.38
2022-08-25T23:39:32.982Z,20.47
2022-08-25T23:42:02.181Z,20.45
2022-08-25T23:44:36.685Z,20.45
2022-08-25T23:47:06.844Z,20.42
2022-08-25T23:49:36.026Z,20.31
2022-08-25T23:52:06.148Z,20.29
2022-08-25T23:54:35.528Z,20.19
2022-08-25T23:57:06.829Z,20.25
2022-08-25T23:59:38.409Z,20.25
